createdAt,value
2019-05-12T00:01:38.963Z,99.90
2019-05-12T00:04:08.203Z,99.90
2019-05-12T00:06:38.568Z,99.90
2019-05-12T00:09:08.186Z,99.90
2019-05-12T00:11:37.769Z,99.90
2019-05-12T00:14:05.379Z,99.90
2019-05-12T00:19:00.999Z,99.90
2019-05-12T00:21:28.737Z,99.90
2019-05-12T00:24:11.819Z,99.90
2019-05-12T00:26:40.780Z,99.90
2019-05-12T00:29:08.626Z,99.90
2019-05-12T00:31:38.281Z,99.90
2019-05-12T00:34:07.766Z,99.90
2019-05-12T00:36:37.814Z,99.90
2019-05-12T00:39:08.588Z,99.90
2019-05-12T00:41:38.667Z,99.90
2019-05-12T00:44:05.703Z,99.90
2019-05-12T00:46:33.411Z,99.90
2019-05-12T00:49:01.165Z,99.90
2019-05-12T00:51:29.056Z,99.90
2019-05-12T00:53:58.005Z,99.90
2019-05-12T00:56:27.906Z,99.90
2019-05-12T00:58:57.905Z,99.90
2019-05-12T01:01:25.074Z,99.90
2019-05-12T01:03:52.960Z,99.90
2019-05-12T01:06:20.658Z,99.90
2019-05-12T01:08:48.529Z,99.90
2019-05-12T01:11:17.796Z,99.90
2019-05-12T01:13:45.761Z,99.90
2019-05-12T01:16:22.522Z,99.90
2019-05-12T01:18:50.317Z,99.90
2019-05-12T01:21:18.524Z,99.90
2019-05-12T01:23:56.525Z,99.90
2019-05-12T01:26:17.949Z,99.90
2019-05-12T01:28:45.546Z,99.90
2019-05-12T01:31:15.120Z,99.90
2019-05-12T01:33:43.604Z,99.90
2019-05-12T01:36:11.368Z,99.90
2019-05-12T01:38:39.156Z,99.90
2019-05-12T01:41:08.760Z,99.90
2019-05-12T01:43:38.195Z,99.90
2019-05-12T01:46:08.058Z,99.90
2019-05-12T01:48:37.664Z,99.90
2019-05-12T01:51:05.197Z,99.90
2019-05-12T01:53:32.788Z,99.90
2019-05-12T01:56:00.600Z,99.90
2019-05-12T01:58:28.173Z,99.90
2019-05-12T02:00:55.925Z,99.90
2019-05-12T02:03:23.718Z,99.90
2019-05-12T02:05:53.011Z,99.90
2019-05-12T02:08:28.118Z,99.90
2019-05-12T02:11:15.337Z,99.90
2019-05-12T02:13:44.613Z,99.90
2019-05-12T02:16:12.827Z,99.90
2019-05-12T02:18:40.564Z,99.90
2019-05-12T02:21:08.422Z,99.90
2019-05-12T02:23:38.570Z,99.90
2019-05-12T02:26:08.100Z,99.90
2019-05-12T02:28:35.553Z,99.90
2019-05-12T02:31:03.232Z,99.90
2019-05-12T02:33:31.066Z,99.90
2019-05-12T02:35:58.742Z,99.90
2019-05-12T02:38:26.517Z,99.90
2019-05-12T02:40:55.436Z,99.90
2019-05-12T02:43:24.447Z,99.90
2019-05-12T02:45:54.766Z,99.90
2019-05-12T02:48:24.590Z,99.90
2019-05-12T02:50:54.395Z,99.90
2019-05-12T02:53:24.622Z,99.90
2019-05-12T02:55:54.451Z,99.90
2019-05-12T02:58:25.521Z,99.90
2019-05-12T03:00:56.202Z,99.90
2019-05-12T03:03:27.676Z,99.90
2019-05-12T03:05:58.120Z,99.90
2019-05-12T03:08:27.651Z,99.90
2019-05-12T03:10:57.830Z,99.90
2019-05-12T03:13:25.712Z,99.90
2019-05-12T03:15:54.898Z,99.90
2019-05-12T03:18:25.128Z,99.90
2019-05-12T03:20:54.725Z,99.90
2019-05-12T03:23:24.809Z,99.90
2019-05-12T03:25:54.564Z,99.90
2019-05-12T03:28:25.149Z,99.90
2019-05-12T03:30:50.892Z,99.90
2019-05-12T03:33:20.062Z,99.90
2019-05-12T03:35:52.734Z,99.90
2019-05-12T03:38:17.837Z,99.90
2019-05-12T03:40:45.548Z,99.90
2019-05-12T03:43:14.566Z,99.90
2019-05-12T03:45:45.376Z,99.90
2019-05-12T03:48:14.918Z,99.90
2019-05-12T03:50:45.659Z,99.90
2019-05-12T03:53:14.534Z,99.90
2019-05-12T03:55:45.530Z,99.90
2019-05-12T03:58:10.640Z,99.90
2019-05-12T04:00:38.391Z,99.90
2019-05-12T04:03:06.307Z,99.90
2019-05-12T04:05:35.092Z,99.90
2019-05-12T04:08:05.421Z,99.90
2019-05-12T04:10:35.446Z,99.90
2019-05-12T04:13:04.603Z,99.90
2019-05-12T04:15:34.714Z,99.90
2019-05-12T04:18:04.920Z,99.90
2019-05-12T04:23:24.874Z,99.90
2019-05-12T04:26:04.825Z,99.90
2019-05-12T04:28:24.556Z,99.90
2019-05-12T04:30:54.499Z,99.90
2019-05-12T04:33:25.393Z,99.90
2019-05-12T04:38:19.185Z,99.90
2019-05-12T04:40:46.952Z,99.90
2019-05-12T04:43:14.872Z,99.90
2019-05-12T04:45:45.184Z,99.90
2019-05-12T04:48:15.490Z,99.90
2019-05-12T04:50:44.997Z,99.90
2019-05-12T04:53:14.197Z,99.90
2019-05-12T04:55:44.243Z,99.90
2019-05-12T04:58:10.572Z,99.90
2019-05-12T05:00:38.233Z,99.90
2019-05-12T05:03:06.303Z,99.90
2019-05-12T05:05:35.308Z,99.90
2019-05-12T05:08:04.582Z,99.90
2019-05-12T05:10:34.083Z,99.90
2019-05-12T05:13:04.961Z,99.90
2019-05-12T05:15:34.319Z,99.90
2019-05-12T05:18:05.706Z,99.90
2019-05-12T05:20:31.111Z,99.90
2019-05-12T05:22:58.861Z,99.90
2019-05-12T05:25:26.413Z,99.90
2019-05-12T05:27:54.180Z,99.90
2019-05-12T05:30:24.207Z,99.90
2019-05-12T05:32:53.459Z,99.90
2019-05-12T05:35:20.951Z,99.90
2019-05-12T05:37:48.688Z,99.90
2019-05-12T05:40:19.816Z,99.90
2019-05-12T05:42:49.097Z,99.90
2019-05-12T05:45:22.170Z,99.90
2019-05-12T05:47:48.983Z,99.90
2019-05-12T05:50:18.365Z,99.90
2019-05-12T05:52:45.973Z,99.90
2019-05-12T05:55:19.713Z,99.90
2019-05-12T05:57:44.375Z,99.90
2019-05-12T06:00:20.519Z,99.90
2019-05-12T06:02:44.094Z,99.90
2019-05-12T06:05:14.277Z,99.90
2019-05-12T06:07:44.131Z,99.90
2019-05-12T06:10:14.307Z,99.90
2019-05-12T06:12:46.429Z,99.90
2019-05-12T06:15:13.379Z,99.90
2019-05-12T06:17:43.695Z,99.90
2019-05-12T06:20:13.294Z,99.90
2019-05-12T06:22:40.806Z,99.90
2019-05-12T06:25:08.474Z,99.90
2019-05-12T06:27:36.362Z,99.90
2019-05-12T06:30:06.360Z,99.90
2019-05-12T06:32:34.861Z,99.90
2019-05-12T06:35:04.554Z,99.90
2019-05-12T06:37:33.847Z,99.90
2019-05-12T06:40:03.610Z,99.90
2019-05-12T06:42:34.045Z,99.90
2019-05-12T06:45:03.648Z,99.90
2019-05-12T06:47:34.150Z,99.90
2019-05-12T06:50:03.687Z,99.90
2019-05-12T06:52:33.730Z,99.90
2019-05-12T06:55:03.786Z,99.90
2019-05-12T06:57:34.111Z,99.90
2019-05-12T07:00:01.353Z,99.90
2019-05-12T07:02:37.160Z,99.90
2019-05-12T07:05:00.294Z,99.90
2019-05-12T07:07:32.766Z,99.90
2019-05-12T07:10:10.427Z,99.90
2019-05-12T07:12:36.697Z,99.90
2019-05-12T07:14:58.786Z,99.90
2019-05-12T07:17:37.197Z,99.90
2019-05-12T07:20:05.962Z,99.90
2019-05-12T07:22:43.681Z,99.90
2019-05-12T07:25:04.873Z,99.90
2019-05-12T07:27:39.285Z,99.90
2019-05-12T07:30:04.765Z,99.90
2019-05-12T07:32:34.443Z,99.90
2019-05-12T07:35:03.904Z,99.90
2019-05-12T07:37:34.596Z,99.90
2019-05-12T07:40:04.853Z,99.90
2019-05-12T07:42:39.297Z,99.90
2019-05-12T07:45:04.919Z,99.90
2019-05-12T07:47:34.275Z,99.90
2019-05-12T07:50:04.316Z,99.90
2019-05-12T07:52:33.769Z,99.90
2019-05-12T07:55:04.118Z,99.90
2019-05-12T07:57:34.571Z,99.90
2019-05-12T08:00:03.600Z,99.90
2019-05-12T08:02:35.530Z,99.80
2019-05-12T08:05:03.905Z,99.90
2019-05-12T08:07:33.757Z,99.90
2019-05-12T08:10:07.151Z,99.90
2019-05-12T08:12:34.047Z,99.90
2019-05-12T08:15:07.784Z,99.90
2019-05-12T08:17:33.715Z,99.30
2019-05-12T08:20:04.340Z,99.20
2019-05-12T08:22:34.678Z,99.90
2019-05-12T08:25:04.226Z,99.90
2019-05-12T08:27:34.059Z,99.90
2019-05-12T08:30:05.998Z,98.60
2019-05-12T08:32:33.866Z,99.90
2019-05-12T08:35:04.846Z,99.90
2019-05-12T08:37:33.386Z,99.40
2019-05-12T08:40:04.065Z,99.80
2019-05-12T08:42:34.283Z,99.50
2019-05-12T08:45:07.967Z,99.90
2019-05-12T08:47:38.685Z,99.90
2019-05-12T08:50:04.947Z,98.40
2019-05-12T08:52:37.117Z,98.50
2019-05-12T08:55:04.255Z,98.00
2019-05-12T08:57:40.534Z,98.50
2019-05-12T09:00:03.422Z,98.40
2019-05-12T09:02:34.426Z,99.90
2019-05-12T09:05:04.611Z,97.80
2019-05-12T09:07:35.833Z,98.70
2019-05-12T09:10:04.160Z,99.90
2019-05-12T09:12:33.753Z,96.40
2019-05-12T09:15:05.442Z,97.20
2019-05-12T09:17:37.381Z,97.40
2019-05-12T09:20:08.374Z,97.60
2019-05-12T09:22:34.397Z,97.30
2019-05-12T09:25:06.269Z,97.90
2019-05-12T09:27:33.540Z,96.90
2019-05-12T09:30:07.624Z,98.00
2019-05-12T09:32:33.386Z,96.00
2019-05-12T09:35:01.942Z,95.60
2019-05-12T09:37:38.796Z,95.60
2019-05-12T09:40:04.402Z,96.10
2019-05-12T09:42:33.394Z,95.30
2019-05-12T09:45:08.032Z,95.50
2019-05-12T09:47:31.397Z,94.90
2019-05-12T09:49:59.194Z,94.80
2019-05-12T09:52:27.285Z,96.60
2019-05-12T09:54:55.357Z,95.90
2019-05-12T09:57:23.902Z,96.50
2019-05-12T09:59:55.557Z,95.60
2019-05-12T10:02:23.801Z,94.90
2019-05-12T10:04:56.512Z,94.50
2019-05-12T10:07:20.679Z,95.00
2019-05-12T10:09:49.292Z,95.10
2019-05-12T10:12:18.286Z,94.00
2019-05-12T10:14:47.225Z,94.80
2019-05-12T10:17:20.171Z,93.60
2019-05-12T10:19:48.510Z,93.60
2019-05-12T10:22:14.441Z,93.40
2019-05-12T10:24:54.589Z,96.30
2019-05-12T10:27:13.763Z,93.40
2019-05-12T10:29:43.639Z,93.50
2019-05-12T10:32:13.211Z,93.30
2019-05-12T10:34:40.910Z,94.00
2019-05-12T10:37:08.770Z,93.80
2019-05-12T10:39:36.579Z,94.60
2019-05-12T10:42:04.265Z,96.00
2019-05-12T10:44:37.685Z,94.60
2019-05-12T10:47:04.471Z,93.60
2019-05-12T10:49:33.765Z,94.20
2019-05-12T10:52:03.728Z,92.90
2019-05-12T10:54:31.365Z,94.30
2019-05-12T10:56:59.136Z,94.60
2019-05-12T10:59:32.953Z,93.10
2019-05-12T11:01:56.525Z,91.70
2019-05-12T11:04:35.641Z,92.50
2019-05-12T11:06:54.033Z,93.20
2019-05-12T11:09:29.442Z,92.20
2019-05-12T11:11:53.937Z,92.40
2019-05-12T11:14:26.296Z,92.00
2019-05-12T11:16:54.120Z,92.40
2019-05-12T11:19:22.404Z,93.30
2019-05-12T11:21:50.114Z,92.40
2019-05-12T11:24:17.909Z,91.60
2019-05-12T11:26:45.654Z,91.40
2019-05-12T11:29:14.114Z,92.00
2019-05-12T11:31:44.077Z,89.80
2019-05-12T11:34:11.656Z,90.40
2019-05-12T11:36:39.373Z,93.00
2019-05-12T11:39:07.156Z,90.90
2019-05-12T11:41:34.900Z,89.20
2019-05-12T11:44:04.002Z,89.60
2019-05-12T11:46:47.034Z,89.40
2019-05-12T11:49:14.824Z,89.30
2019-05-12T11:51:42.536Z,90.20
2019-05-12T11:54:10.925Z,91.00
2019-05-12T11:56:40.476Z,89.60
2019-05-12T11:59:08.974Z,87.90
2019-05-12T12:01:39.708Z,90.30
2019-05-12T12:04:06.435Z,89.50
2019-05-12T12:06:34.051Z,91.10
2019-05-12T12:09:03.846Z,90.20
2019-05-12T12:11:34.264Z,90.20
2019-05-12T12:14:06.341Z,89.80
2019-05-12T12:16:41.917Z,89.60
2019-05-12T12:19:09.879Z,87.60
2019-05-12T12:21:40.291Z,84.20
2019-05-12T12:24:07.201Z,87.80
2019-05-12T12:26:37.127Z,87.10
2019-05-12T12:29:07.897Z,86.00
2019-05-12T12:31:49.247Z,80.60
2019-05-12T12:34:44.104Z,83.20
2019-05-12T12:37:13.719Z,84.80
2019-05-12T12:39:43.434Z,83.30
2019-05-12T12:42:14.030Z,84.60
2019-05-12T12:44:41.993Z,83.80
2019-05-12T12:47:09.701Z,82.20
2019-05-12T12:49:54.641Z,81.90
2019-05-12T12:52:30.845Z,85.60
2019-05-12T12:55:05.358Z,85.60
2019-05-12T12:57:33.462Z,85.40
2019-05-12T13:00:03.806Z,87.90
2019-05-12T13:02:52.715Z,86.60
2019-05-12T13:05:20.460Z,84.30
2019-05-12T13:07:48.226Z,85.00
2019-05-12T13:10:16.088Z,83.90
2019-05-12T13:12:44.119Z,82.20
2019-05-12T13:15:14.482Z,79.40
2019-05-12T13:17:44.571Z,81.50
2019-05-12T13:20:12.899Z,79.40
2019-05-12T13:22:40.987Z,79.90
2019-05-12T13:25:09.050Z,80.10
2019-05-12T13:27:37.467Z,77.80
2019-05-12T13:30:05.651Z,78.90
2019-05-12T13:32:37.931Z,80.30
2019-05-12T13:35:09.802Z,76.20
2019-05-12T13:37:34.856Z,78.30
2019-05-12T13:40:02.797Z,74.40
2019-05-12T13:42:35.803Z,73.00
2019-05-12T13:45:03.672Z,72.80
2019-05-12T13:47:35.324Z,72.60
2019-05-12T13:50:04.051Z,75.40
2019-05-12T13:52:33.307Z,73.00
2019-05-12T13:55:05.697Z,71.30
2019-05-12T13:57:31.095Z,70.60
2019-05-12T14:00:09.314Z,71.10
2019-05-12T14:02:30.225Z,68.10
2019-05-12T14:05:00.318Z,68.20
2019-05-12T14:07:28.101Z,67.90
2019-05-12T14:09:55.921Z,67.50
2019-05-12T14:12:23.758Z,69.60
2019-05-12T14:14:51.663Z,71.70
2019-05-12T14:17:19.378Z,70.60
2019-05-12T14:19:47.192Z,69.10
2019-05-12T14:22:21.179Z,68.40
2019-05-12T14:24:46.903Z,67.20
2019-05-12T14:27:19.003Z,63.80
2019-05-12T14:29:46.672Z,63.60
2019-05-12T14:32:19.070Z,63.90
2019-05-12T14:34:51.109Z,65.20
2019-05-12T14:37:19.588Z,65.50
2019-05-12T14:39:50.261Z,66.50
2019-05-12T14:42:17.122Z,67.00
2019-05-12T14:44:49.859Z,66.60
2019-05-12T14:47:24.616Z,71.90
2019-05-12T14:49:48.831Z,67.20
2019-05-12T14:52:16.744Z,67.30
2019-05-12T14:54:44.646Z,64.40
2019-05-12T14:57:13.869Z,66.70
2019-05-12T14:59:43.886Z,63.50
2019-05-12T15:02:13.595Z,62.20
2019-05-12T15:04:43.418Z,65.00
2019-05-12T15:07:12.509Z,64.10
2019-05-12T15:09:45.755Z,61.50
2019-05-12T15:12:14.131Z,60.90
2019-05-12T15:14:45.389Z,60.80
2019-05-12T15:17:22.519Z,61.70
2019-05-12T15:19:45.785Z,60.20
2019-05-12T15:22:14.778Z,59.10
2019-05-12T15:24:44.106Z,56.00
2019-05-12T15:27:13.488Z,58.70
2019-05-12T15:29:41.526Z,56.30
2019-05-12T15:32:09.376Z,57.80
2019-05-12T15:34:37.166Z,53.60
2019-05-12T15:37:04.962Z,52.80
2019-05-12T15:39:33.615Z,55.00
2019-05-12T15:42:03.478Z,56.60
2019-05-12T15:44:33.973Z,57.40
2019-05-12T15:47:00.956Z,56.50
2019-05-12T15:49:28.698Z,56.30
2019-05-12T15:51:58.573Z,55.40
2019-05-12T15:54:26.263Z,54.70
2019-05-12T15:56:55.728Z,55.70
2019-05-12T15:59:24.037Z,52.50
2019-05-12T16:01:53.279Z,52.80
2019-05-12T16:04:21.407Z,51.80
2019-05-12T16:06:53.465Z,53.30
2019-05-12T16:09:18.983Z,54.40
2019-05-12T16:11:46.970Z,53.30
2019-05-12T16:14:14.870Z,55.80
2019-05-12T16:16:46.856Z,52.10
2019-05-12T16:19:14.550Z,53.60
2019-05-12T16:21:45.350Z,52.90
2019-05-12T16:24:13.378Z,51.60
2019-05-12T16:26:42.922Z,52.90
2019-05-12T16:29:11.655Z,53.70
2019-05-12T16:31:48.240Z,51.20
2019-05-12T16:34:09.762Z,54.10
2019-05-12T16:39:07.882Z,53.30
2019-05-12T16:41:36.042Z,53.40
2019-05-12T16:44:07.908Z,53.70
2019-05-12T16:46:34.024Z,52.70
2019-05-12T16:49:03.382Z,55.70
2019-05-12T16:51:33.238Z,53.20
2019-05-12T16:54:07.083Z,52.80
2019-05-12T16:56:34.907Z,51.60
2019-05-12T16:59:07.155Z,52.30
2019-05-12T17:01:33.491Z,52.00
2019-05-12T17:04:01.303Z,53.60
2019-05-12T17:06:35.201Z,54.20
2019-05-12T17:09:06.472Z,51.40
2019-05-12T17:11:45.671Z,52.70
2019-05-12T17:14:05.880Z,51.20
2019-05-12T17:16:41.815Z,53.40
2019-05-12T17:19:24.828Z,55.10
2019-05-12T17:21:59.581Z,53.30
2019-05-12T17:24:29.940Z,54.60
2019-05-12T17:27:00.774Z,54.50
2019-05-12T17:29:34.371Z,55.90
2019-05-12T17:32:04.117Z,56.60
2019-05-12T17:34:33.993Z,55.70
2019-05-12T17:37:03.797Z,53.00
2019-05-12T17:39:35.765Z,53.60
2019-05-12T17:42:01.002Z,52.90
2019-05-12T17:44:31.242Z,54.20
2019-05-12T17:46:58.816Z,54.70
2019-05-12T17:49:30.911Z,53.60
2019-05-12T17:51:57.272Z,53.80
2019-05-12T17:54:26.502Z,53.70
2019-05-12T17:56:56.702Z,53.90
2019-05-12T17:59:29.189Z,55.70
2019-05-12T18:01:59.874Z,54.40
2019-05-12T18:04:30.499Z,54.90
2019-05-12T18:07:12.826Z,54.80
2019-05-12T18:09:36.768Z,54.80
2019-05-12T18:12:04.857Z,55.30
2019-05-12T18:14:44.612Z,56.60
2019-05-12T18:17:08.465Z,56.90
2019-05-12T18:19:33.793Z,56.20
2019-05-12T18:22:09.311Z,56.00
2019-05-12T18:24:41.007Z,57.00
2019-05-12T18:27:07.882Z,56.30
2019-05-12T18:29:35.923Z,57.00
2019-05-12T18:32:04.965Z,56.30
2019-05-12T18:34:34.032Z,57.00
2019-05-12T18:37:01.977Z,57.00
2019-05-12T18:39:29.812Z,58.40
2019-05-12T18:41:57.596Z,57.60
2019-05-12T18:44:30.871Z,58.20
2019-05-12T18:46:54.969Z,58.10
2019-05-12T18:49:23.906Z,56.90
2019-05-12T18:51:55.602Z,57.50
2019-05-12T18:54:24.121Z,58.10
2019-05-12T18:57:01.482Z,59.50
2019-05-12T18:59:21.262Z,57.90
2019-05-12T19:01:49.133Z,59.40
2019-05-12T19:04:16.872Z,58.90
2019-05-12T19:06:44.654Z,59.80
2019-05-12T19:09:13.770Z,59.10
2019-05-12T19:11:45.786Z,59.60
2019-05-12T19:14:13.458Z,59.60
2019-05-12T19:16:43.244Z,59.60
2019-05-12T19:19:18.331Z,59.80
2019-05-12T19:21:40.785Z,60.90
2019-05-12T19:24:13.572Z,59.80
2019-05-12T19:26:40.319Z,61.00
2019-05-12T19:29:07.968Z,60.90
2019-05-12T19:31:36.742Z,61.20
2019-05-12T19:34:18.079Z,61.60
2019-05-12T19:36:36.011Z,60.80
2019-05-12T19:39:06.428Z,60.90
2019-05-12T19:41:36.462Z,61.20
2019-05-12T19:44:04.170Z,61.40
2019-05-12T19:46:34.052Z,61.50
2019-05-12T19:49:01.779Z,61.90
2019-05-12T19:51:29.630Z,62.90
2019-05-12T19:53:57.638Z,61.50
2019-05-12T19:56:34.578Z,62.40
2019-05-12T19:58:55.175Z,62.90
2019-05-12T20:01:26.053Z,63.30
2019-05-12T20:03:55.585Z,62.20
2019-05-12T20:06:24.355Z,63.20
2019-05-12T20:08:55.827Z,62.60
2019-05-12T20:11:26.505Z,63.70
2019-05-12T20:13:53.799Z,63.00
2019-05-12T20:16:24.535Z,64.10
2019-05-12T20:18:55.296Z,63.10
2019-05-12T20:21:26.088Z,64.30
2019-05-12T20:23:51.344Z,65.10
2019-05-12T20:26:19.073Z,64.90
2019-05-12T20:28:50.438Z,64.40
2019-05-12T20:31:16.717Z,64.80
2019-05-12T20:33:44.470Z,64.80
2019-05-12T20:36:14.103Z,65.40
2019-05-12T20:38:44.210Z,66.40
2019-05-12T20:41:21.787Z,66.00
2019-05-12T20:43:44.167Z,64.80
2019-05-12T20:46:15.448Z,66.10
2019-05-12T20:48:40.729Z,66.70
2019-05-12T20:51:13.697Z,66.30
2019-05-12T20:53:38.327Z,66.70
2019-05-12T20:56:06.089Z,66.30
2019-05-12T20:58:40.928Z,66.90
2019-05-12T21:01:05.144Z,67.40
2019-05-12T21:03:33.641Z,67.10
2019-05-12T21:06:04.170Z,67.70
2019-05-12T21:08:31.229Z,67.30
2019-05-12T21:10:59.127Z,66.70
2019-05-12T21:13:31.645Z,66.40
2019-05-12T21:15:56.589Z,66.80
2019-05-12T21:18:46.897Z,66.60
2019-05-12T21:21:06.421Z,67.20
2019-05-12T21:23:34.171Z,67.20
2019-05-12T21:26:04.025Z,66.80
2019-05-12T21:28:31.635Z,67.30
2019-05-12T21:30:59.447Z,66.70
2019-05-12T21:33:31.291Z,67.70
2019-05-12T21:35:56.897Z,67.80
2019-05-12T21:38:29.397Z,68.10
2019-05-12T21:40:54.311Z,68.30
2019-05-12T21:43:22.091Z,68.20
2019-05-12T21:45:49.918Z,68.40
2019-05-12T21:48:23.850Z,68.20
2019-05-12T21:50:47.388Z,68.80
2019-05-12T21:53:18.497Z,68.30
2019-05-12T21:55:44.753Z,68.20
2019-05-12T21:58:15.143Z,68.70
2019-05-12T22:00:50.349Z,68.50
2019-05-12T22:03:18.336Z,68.50
2019-05-12T22:05:51.506Z,70.30
2019-05-12T22:08:22.154Z,70.40
2019-05-12T22:10:49.003Z,69.70
2019-05-12T22:13:18.094Z,70.00
2019-05-12T22:15:51.147Z,70.00
2019-05-12T22:18:15.980Z,70.30
2019-05-12T22:20:46.048Z,70.50
2019-05-12T22:23:15.081Z,71.00
2019-05-12T22:25:43.559Z,70.90
2019-05-12T22:28:13.482Z,71.20
2019-05-12T22:30:43.566Z,71.00
2019-05-12T22:33:11.588Z,70.80
2019-05-12T22:35:40.566Z,71.20
2019-05-12T22:38:15.185Z,71.70
2019-05-12T22:40:38.254Z,71.30
2019-05-12T22:43:07.184Z,71.40
2019-05-12T22:45:44.007Z,71.90
2019-05-12T22:48:04.814Z,72.20
2019-05-12T22:50:34.933Z,72.40
2019-05-12T22:53:04.166Z,72.70
2019-05-12T22:55:33.190Z,72.60
2019-05-12T22:58:01.306Z,72.90
2019-05-12T23:00:29.318Z,73.90
2019-05-12T23:03:00.715Z,73.90
2019-05-12T23:05:26.985Z,74.50
2019-05-12T23:07:54.699Z,75.10
2019-05-12T23:10:22.435Z,75.30
2019-05-12T23:12:50.420Z,75.50
2019-05-12T23:15:19.946Z,75.50
2019-05-12T23:17:49.346Z,75.30
2019-05-12T23:20:17.613Z,75.80
2019-05-12T23:22:45.585Z,75.70
2019-05-12T23:25:20.058Z,75.80
2019-05-12T23:27:44.224Z,76.50
2019-05-12T23:30:15.163Z,77.00
2019-05-12T23:32:45.249Z,77.00
2019-05-12T23:35:14.267Z,77.00
2019-05-12T23:37:41.435Z,77.30
2019-05-12T23:40:11.463Z,77.20
2019-05-12T23:42:38.903Z,77.10
2019-05-12T23:45:06.984Z,76.90
2019-05-12T23:47:34.869Z,77.10
2019-05-12T23:50:04.083Z,77.20
2019-05-12T23:52:36.510Z,77.60
2019-05-12T23:55:04.584Z,77.80
2019-05-12T23:57:33.927Z,78.00
